createdAt,value
2023-04-06T00:00:37.045Z,9.40
2023-04-06T00:03:05.582Z,9.37
2023-04-06T00:05:33.979Z,9.13
2023-04-06T00:08:03.528Z,10.23
2023-04-06T00:10:31.923Z,9.77
2023-04-06T00:13:01.072Z,9.97
2023-04-06T00:15:29.210Z,9.37
2023-04-06T00:17:58.249Z,9.63
2023-04-06T00:20:27.580Z,9.50
2023-04-06T00:22:56.117Z,9.03
2023-04-06T00:25:25.670Z,9.03
2023-04-06T00:27:53.881Z,9.60
2023-04-06T00:30:22.599Z,9.67
2023-04-06T00:32:50.736Z,8.97
2023-04-06T00:35:18.925Z,9.07
2023-04-06T00:37:49.083Z,8.63
2023-04-06T00:40:17.504Z,7.77
2023-04-06T00:42:47.475Z,7.77
2023-04-06T00:45:15.561Z,8.13
2023-04-06T00:47:43.890Z,7.90
2023-04-06T00:50:12.254Z,7.87
2023-04-06T00:52:40.410Z,7.83
2023-04-06T00:55:09.858Z,8.03
2023-04-06T00:57:38.309Z,7.30
2023-04-06T01:00:09.449Z,7.70
2023-04-06T01:02:37.787Z,7.37
2023-04-06T01:05:06.807Z,7.50
2023-04-06T01:07:35.382Z,7.40
2023-04-06T01:10:03.913Z,7.50
2023-04-06T01:12:32.138Z,7.70
2023-04-06T01:15:00.538Z,7.43
2023-04-06T01:17:30.685Z,7.53
2023-04-06T01:19:59.258Z,7.70
2023-04-06T01:22:28.817Z,7.27
2023-04-06T01:24:57.668Z,7.60
2023-04-06T01:27:27.347Z,7.43
2023-04-06T01:29:55.540Z,7.47
2023-04-06T01:32:24.028Z,6.80
2023-04-06T01:34:52.161Z,7.10
2023-04-06T01:37:20.413Z,7.20
2023-04-06T01:39:50.048Z,7.17
2023-04-06T01:42:18.185Z,6.83
2023-04-06T01:44:48.172Z,7.07
2023-04-06T01:47:16.248Z,6.77
2023-04-06T01:49:44.427Z,7.17
2023-04-06T01:52:12.529Z,7.00
2023-04-06T01:54:40.888Z,7.27
2023-04-06T01:57:10.561Z,6.80
2023-04-06T01:59:38.813Z,7.00
2023-04-06T02:02:07.025Z,7.00
2023-04-06T02:04:35.134Z,7.40
2023-04-06T02:07:03.240Z,7.17
2023-04-06T02:09:31.922Z,6.90
2023-04-06T02:12:00.052Z,7.23
2023-04-06T02:14:29.682Z,7.10
2023-04-06T02:16:57.849Z,6.90
2023-04-06T02:19:26.068Z,7.30
2023-04-06T02:21:54.375Z,7.40
2023-04-06T02:24:22.429Z,7.20
2023-04-06T02:26:50.917Z,7.20
2023-04-06T02:29:19.044Z,7.63
2023-04-06T02:31:48.599Z,7.10
2023-04-06T02:34:18.957Z,7.10
2023-04-06T02:36:47.780Z,7.30
2023-04-06T02:39:16.673Z,7.10
2023-04-06T02:41:44.800Z,7.60
2023-04-06T02:44:12.898Z,7.00
2023-04-06T02:46:41.396Z,7.03
2023-04-06T02:49:10.898Z,7.20
2023-04-06T02:51:39.074Z,7.30
2023-04-06T02:54:07.206Z,7.07
2023-04-06T02:56:35.545Z,7.40
2023-04-06T02:59:04.034Z,7.47
2023-04-06T03:01:32.482Z,7.87
2023-04-06T03:04:00.609Z,9.00
2023-04-06T03:06:30.162Z,9.20
2023-04-06T03:08:58.272Z,8.90
2023-04-06T03:11:27.911Z,8.93
2023-04-06T03:13:56.078Z,8.63
2023-04-06T03:16:24.351Z,7.83
2023-04-06T03:18:52.500Z,6.47
2023-04-06T03:21:21.324Z,6.90
2023-04-06T03:23:52.204Z,6.57
2023-04-06T03:26:20.478Z,6.57
2023-04-06T03:28:48.566Z,6.63
2023-04-06T03:31:16.834Z,6.80
2023-04-06T03:33:44.986Z,6.57
2023-04-06T03:36:13.557Z,7.27
2023-04-06T03:38:41.663Z,6.50
2023-04-06T03:41:11.553Z,6.83
2023-04-06T03:43:39.677Z,7.17
2023-04-06T03:46:07.867Z,7.37
2023-04-06T03:48:36.476Z,7.43
2023-04-06T03:51:04.681Z,7.87
2023-04-06T03:53:32.894Z,7.23
2023-04-06T03:56:03.428Z,7.30
2023-04-06T03:58:34.247Z,9.10
2023-04-06T04:01:02.583Z,7.97
2023-04-06T04:03:30.806Z,7.70
2023-04-06T04:05:59.029Z,7.63
2023-04-06T04:08:27.502Z,7.77
2023-04-06T04:10:56.478Z,7.50
2023-04-06T04:13:25.025Z,7.60
2023-04-06T04:15:54.982Z,7.53
2023-04-06T04:18:23.189Z,7.80
2023-04-06T04:20:55.663Z,8.13
2023-04-06T04:23:23.837Z,8.37
2023-04-06T04:25:52.735Z,10.47
2023-04-06T04:28:20.875Z,10.70
2023-04-06T04:30:49.093Z,9.40
2023-04-06T04:33:18.607Z,10.50
2023-04-06T04:35:46.798Z,10.57
2023-04-06T04:38:15.362Z,9.50
2023-04-06T04:40:43.525Z,9.27
2023-04-06T04:43:11.832Z,9.93
2023-04-06T04:45:39.935Z,9.83
2023-04-06T04:48:09.632Z,9.73
2023-04-06T04:50:39.529Z,9.73
2023-04-06T04:53:07.617Z,9.93
2023-04-06T04:55:35.723Z,10.23
2023-04-06T04:58:04.411Z,9.93
2023-04-06T05:00:32.706Z,9.97
2023-04-06T05:03:01.456Z,10.13
2023-04-06T05:05:29.611Z,9.87
2023-04-06T05:07:59.146Z,9.43
2023-04-06T05:10:27.277Z,10.27
2023-04-06T05:12:55.516Z,9.97
2023-04-06T05:15:23.949Z,9.87
2023-04-06T05:17:53.288Z,10.53
2023-04-06T05:20:21.493Z,10.90
2023-04-06T05:22:49.601Z,10.80
2023-04-06T05:25:19.613Z,11.00
2023-04-06T05:27:48.021Z,11.03
2023-04-06T05:30:16.843Z,10.83
2023-04-06T05:32:45.487Z,10.73
2023-04-06T05:35:13.812Z,9.90
2023-04-06T05:37:42.221Z,9.50
2023-04-06T05:40:11.661Z,8.97
2023-04-06T05:42:42.126Z,8.53
2023-04-06T05:45:11.852Z,8.57
2023-04-06T05:47:40.054Z,8.37
2023-04-06T05:50:09.172Z,9.20
2023-04-06T05:52:37.671Z,9.60
2023-04-06T05:55:06.976Z,8.60
2023-04-06T05:57:36.134Z,9.27
2023-04-06T06:00:07.814Z,8.30
2023-04-06T06:02:36.081Z,8.97
2023-04-06T06:05:07.505Z,8.20
2023-04-06T06:07:35.687Z,7.80
2023-04-06T06:10:03.970Z,7.80
2023-04-06T06:12:32.096Z,7.50
2023-04-06T06:15:00.276Z,6.77
2023-04-06T06:17:30.154Z,6.40
2023-04-06T06:19:58.252Z,6.03
2023-04-06T06:22:26.396Z,5.70
2023-04-06T06:24:54.461Z,5.47
2023-04-06T13:10:54.123Z,7.90
2023-04-06T13:13:25.670Z,7.70
2023-04-06T13:15:53.985Z,7.60
2023-04-06T13:18:22.350Z,10.93
2023-04-06T13:20:50.515Z,9.20
2023-04-06T13:23:19.145Z,7.87
2023-04-06T13:25:48.703Z,7.57
2023-04-06T13:28:16.932Z,7.53
2023-04-06T13:30:45.386Z,8.00
2023-04-06T13:33:13.569Z,7.73
2023-04-06T13:35:41.935Z,7.97
2023-04-06T13:38:10.062Z,7.50
2023-04-06T13:40:41.022Z,8.17
2023-04-06T13:43:10.648Z,8.43
2023-04-06T13:45:39.292Z,8.33
2023-04-06T13:48:08.193Z,8.10
2023-04-06T13:50:36.452Z,8.33
2023-04-06T13:53:04.452Z,7.90
2023-04-06T13:55:32.426Z,8.50
2023-04-06T13:58:00.425Z,8.30
2023-04-06T14:00:30.385Z,9.07
2023-04-06T14:02:58.545Z,8.57
2023-04-06T14:05:28.708Z,8.70
2023-04-06T14:07:56.657Z,8.13
2023-04-06T14:10:27.637Z,8.73
2023-04-06T14:12:57.273Z,8.43
2023-04-06T14:15:25.475Z,8.70
2023-04-06T14:17:54.879Z,8.10
2023-04-06T14:20:23.005Z,8.07
2023-04-06T14:22:53.550Z,8.00
2023-04-06T14:25:21.812Z,8.00
2023-04-06T14:27:49.789Z,8.67
2023-04-06T14:30:18.091Z,8.80
2023-04-06T14:32:46.109Z,7.93
2023-04-06T14:35:15.498Z,8.00
2023-04-06T14:37:43.672Z,7.60
2023-04-06T14:40:12.309Z,7.60
2023-04-06T14:42:40.809Z,8.00
2023-04-06T14:45:09.622Z,7.30
2023-04-06T14:47:37.651Z,7.63
2023-04-06T14:50:06.908Z,7.77
2023-04-06T14:52:37.264Z,7.33
2023-04-06T14:55:05.913Z,7.23
2023-04-06T14:57:34.771Z,7.87
2023-04-06T15:00:04.344Z,7.60
2023-04-06T15:02:34.938Z,7.83
2023-04-06T15:05:03.881Z,7.80
2023-04-06T15:07:31.885Z,7.77
2023-04-06T15:10:01.241Z,7.50
2023-04-06T15:12:30.525Z,7.10
2023-04-06T15:14:59.395Z,7.77
2023-04-06T15:17:28.090Z,7.50
2023-04-06T15:19:56.289Z,7.10
2023-04-06T15:22:24.333Z,7.20
2023-04-06T15:24:52.547Z,7.00
2023-04-06T15:27:22.280Z,7.13
2023-04-06T15:29:50.425Z,7.20
2023-04-06T15:32:18.523Z,6.50
2023-04-06T15:34:46.572Z,7.67
2023-04-06T15:37:14.652Z,8.07
2023-04-06T15:39:44.068Z,11.30
2023-04-06T15:42:12.035Z,22.00
2023-04-06T15:44:41.593Z,8.47
2023-04-06T15:47:09.624Z,8.63
2023-04-06T15:49:37.679Z,8.23
2023-04-06T15:52:06.299Z,8.50
2023-04-06T15:54:36.483Z,8.27
2023-04-06T15:57:04.509Z,8.47
2023-04-06T15:59:32.447Z,8.67
2023-04-06T16:02:02.052Z,8.53
2023-04-06T16:04:30.883Z,8.70
2023-04-06T16:06:59.079Z,8.80
2023-04-06T16:09:27.744Z,8.33
2023-04-06T16:11:56.787Z,8.60
2023-04-06T16:14:24.937Z,9.17
2023-04-06T16:16:53.446Z,8.97
2023-04-06T16:19:22.816Z,9.27
2023-04-06T16:21:51.422Z,8.37
2023-04-06T16:24:19.444Z,8.57
2023-04-06T16:26:48.406Z,8.27
2023-04-06T16:29:17.435Z,8.60
2023-04-06T16:31:47.893Z,8.57
2023-04-06T16:34:16.125Z,8.67
2023-04-06T16:36:46.457Z,6.77
2023-04-06T16:39:14.641Z,7.30
2023-04-06T16:41:42.822Z,7.10
2023-04-06T16:44:11.351Z,6.90
2023-04-06T16:46:40.379Z,6.50
2023-04-06T16:49:08.444Z,6.53
2023-04-06T16:51:37.023Z,6.60
2023-04-06T16:54:06.901Z,6.30
2023-04-06T16:56:34.952Z,6.27
2023-04-06T16:59:03.030Z,6.63
2023-04-06T17:01:31.173Z,6.20
2023-04-06T17:03:59.469Z,6.03
2023-04-06T17:06:28.859Z,6.70
2023-04-06T17:08:57.071Z,6.27
2023-04-06T17:11:48.768Z,7.00
2023-04-06T17:14:14.941Z,7.40
2023-04-06T17:16:43.277Z,7.40
2023-04-06T17:19:11.397Z,8.70
2023-04-06T17:21:41.667Z,9.57
2023-04-06T17:24:09.883Z,8.40
2023-04-06T17:26:39.296Z,8.00
2023-04-06T17:29:07.693Z,7.63
2023-04-06T17:31:35.695Z,7.93
2023-04-06T17:34:03.854Z,8.10
2023-04-06T17:36:32.832Z,8.00
2023-04-06T17:39:00.949Z,8.07
2023-04-06T17:41:32.995Z,8.13
2023-04-06T17:44:02.385Z,8.43
2023-04-06T17:46:30.507Z,8.10
2023-04-06T17:48:58.611Z,8.23
2023-04-06T17:51:27.080Z,8.53
2023-04-06T17:53:55.898Z,8.50
2023-04-06T17:56:24.227Z,7.93
2023-04-06T17:58:56.035Z,9.00
2023-04-06T18:01:25.773Z,10.23
2023-04-06T18:03:54.053Z,9.13
2023-04-06T18:06:25.656Z,8.83
2023-04-06T18:08:54.474Z,8.50
2023-04-06T18:11:22.625Z,9.10
2023-04-06T18:13:52.327Z,9.60
2023-04-06T18:16:21.775Z,9.57
2023-04-06T18:18:51.537Z,8.73
2023-04-06T18:21:19.538Z,9.60
2023-04-06T18:23:48.076Z,9.93
2023-04-06T18:26:18.175Z,10.30
2023-04-06T18:28:46.540Z,10.40
2023-04-06T18:31:15.168Z,11.07
2023-04-06T18:33:43.842Z,10.53
2023-04-06T18:36:14.373Z,10.43
2023-04-06T18:38:44.333Z,10.37
2023-04-06T18:41:12.775Z,10.53
2023-04-06T18:43:41.825Z,10.90
2023-04-06T18:46:13.783Z,10.10
2023-04-06T18:48:41.921Z,11.20
2023-04-06T18:51:10.057Z,10.80
2023-04-06T18:53:40.016Z,11.63
2023-04-06T18:56:15.893Z,11.97
2023-04-06T18:58:44.195Z,12.43
2023-04-06T19:01:12.342Z,13.63
2023-04-06T19:03:40.429Z,14.87
2023-04-06T19:06:08.956Z,14.63
2023-04-06T19:08:37.426Z,13.20
2023-04-06T19:11:09.970Z,12.97
2023-04-06T19:13:39.137Z,13.60
2023-04-06T19:16:10.004Z,13.97
2023-04-06T19:18:38.454Z,14.03
2023-04-06T19:21:14.951Z,14.47
2023-04-06T19:23:43.113Z,14.60
2023-04-06T19:26:13.969Z,13.30
2023-04-06T19:28:43.387Z,12.93
2023-04-06T19:31:13.613Z,13.37
2023-04-06T19:33:41.939Z,13.00
2023-04-06T19:36:10.320Z,12.57
2023-04-06T19:38:39.019Z,12.93
2023-04-06T19:41:07.563Z,11.73
2023-04-06T19:43:36.913Z,13.80
2023-04-06T19:46:05.553Z,13.47
2023-04-06T19:48:34.242Z,13.50
2023-04-06T19:51:02.526Z,15.70
2023-04-06T19:53:31.159Z,15.63
2023-04-06T19:55:59.236Z,16.60
2023-04-06T19:58:27.289Z,15.67
2023-04-06T20:00:56.758Z,16.57
2023-04-06T20:03:25.110Z,16.80
2023-04-06T20:05:53.460Z,18.43
2023-04-06T20:08:21.474Z,17.77
2023-04-06T20:10:49.474Z,16.20
2023-04-06T20:13:17.486Z,15.53
2023-04-06T20:15:45.715Z,15.20
2023-04-06T20:18:19.237Z,14.73
2023-04-06T20:20:47.232Z,14.40
2023-04-06T20:23:15.334Z,14.87
2023-04-06T20:25:43.348Z,14.23
2023-04-06T20:28:11.429Z,14.70
2023-04-06T20:30:39.930Z,13.67
2023-04-06T20:33:08.056Z,15.73
2023-04-06T20:35:37.461Z,16.13
2023-04-06T20:38:05.553Z,16.17
2023-04-06T20:40:33.762Z,15.73
2023-04-06T20:43:03.372Z,16.23
2023-04-06T20:45:38.276Z,16.73
2023-04-06T20:48:06.463Z,16.77
2023-04-06T20:50:34.564Z,16.70
2023-04-06T20:53:04.111Z,16.57
2023-04-06T20:55:34.088Z,16.00
2023-04-06T20:58:02.089Z,15.20
2023-04-06T21:00:30.111Z,15.27
2023-04-06T21:02:58.314Z,15.93
2023-04-06T21:05:26.842Z,15.57
2023-04-06T21:07:55.390Z,16.03
2023-04-06T21:10:25.134Z,16.33
2023-04-06T21:12:53.085Z,16.43
2023-04-06T21:15:21.125Z,16.77
2023-04-06T21:17:49.833Z,16.60
2023-04-06T21:20:17.955Z,16.70
2023-04-06T21:22:45.945Z,16.03
2023-04-06T21:25:14.860Z,15.87
2023-04-06T21:27:44.279Z,16.17
2023-04-06T21:30:13.891Z,15.40
2023-04-06T21:32:42.007Z,16.50
2023-04-06T21:35:11.305Z,15.77
2023-04-06T21:37:39.374Z,16.07
2023-04-06T21:40:08.814Z,15.37
2023-04-06T21:42:37.344Z,15.13
2023-04-06T21:45:07.971Z,15.70
2023-04-06T21:47:36.189Z,15.97
2023-04-06T21:50:04.560Z,15.20
2023-04-06T21:52:32.753Z,14.60
2023-04-06T21:55:02.163Z,14.03
2023-04-06T21:57:30.109Z,15.67
2023-04-06T21:59:58.127Z,15.57
2023-04-06T22:02:29.062Z,14.07
2023-04-06T22:04:57.228Z,14.23
2023-04-06T22:07:25.894Z,14.93
2023-04-06T22:09:53.973Z,14.60
2023-04-06T22:12:21.976Z,14.23
2023-04-06T22:14:51.402Z,14.40
2023-04-06T22:17:19.462Z,14.17
2023-04-06T22:19:49.246Z,14.23
2023-04-06T22:22:17.271Z,15.30
2023-04-06T22:24:45.428Z,14.50
2023-04-06T22:27:13.610Z,14.33
2023-04-06T22:29:41.691Z,14.80
2023-04-06T22:32:13.152Z,14.87
2023-04-06T22:34:41.191Z,13.73
2023-04-06T22:37:10.589Z,15.07
2023-04-06T22:39:38.563Z,14.53
2023-04-06T22:42:06.815Z,13.93
2023-04-06T22:44:35.129Z,14.50
2023-04-06T22:47:03.152Z,14.00
2023-04-06T22:49:31.128Z,13.83
2023-04-06T22:51:59.105Z,14.07
2023-04-06T22:54:28.488Z,14.27
2023-04-06T22:56:57.239Z,14.50
2023-04-06T22:59:25.183Z,14.97
2023-04-06T23:01:53.190Z,14.50
2023-04-06T23:04:21.557Z,14.53
2023-04-06T23:06:49.932Z,14.03
2023-04-06T23:09:18.395Z,13.80
2023-04-06T23:11:47.742Z,13.95
2023-04-06T23:14:16.003Z,14.83
2023-04-06T23:16:44.255Z,14.63
2023-04-06T23:19:12.304Z,15.10
2023-04-06T23:21:41.122Z,14.87
2023-04-06T23:24:09.122Z,14.60
2023-04-06T23:26:37.044Z,13.13
2023-04-06T23:29:06.603Z,12.73
2023-04-06T23:31:34.574Z,13.13
2023-04-06T23:34:02.937Z,13.30
2023-04-06T23:36:31.697Z,12.63
2023-04-06T23:38:59.799Z,13.03
2023-04-06T23:41:28.140Z,13.20
2023-04-06T23:43:56.604Z,12.60
2023-04-06T23:46:26.466Z,13.30
2023-04-06T23:48:54.438Z,12.87
2023-04-06T23:51:22.393Z,13.20
2023-04-06T23:53:50.794Z,12.90
2023-04-06T23:56:18.765Z,12.90
2023-04-06T23:58:47.294Z,12.67
